<?xml version="1.0" encoding="UTF-8" standalone="no" ?>
<gpx xmlns="http://www.topografix.com/GPX/1/1" xmlns:xsi="http://www.w3.org/2001/XMLSchema-instance" xsi:schemaLocation="http://www.topografix.com/GPX/1/1 http://www.topografix.com/GPX/1/1/gpx.xsd" version="1.1" creator="VisuGPX - https://www.visugpx.com">
  <metadata>
    <name>9653180-COQ A L'ANE - BOUGRES 12,5</name>
  </metadata>
  <trk>
    <name><![CDATA[9653180-COQ A L'ANE - BOUGRES 12,5]]></name>
    <trkseg>
      <trkpt lat="46.2386" lon="4.13958">
        <ele>497</ele>
        <time>2019-03-10T11:34:41Z</time>
      </trkpt>
      <trkpt lat="46.23859" lon="4.13916">
        <ele>497</ele>
        <time>2019-03-10T11:35:41Z</time>
      </trkpt>
      <trkpt lat="46.23861" lon="4.13858">
        <ele>497</ele>
        <time>2019-03-10T11:36:41Z</time>
      </trkpt>
      <trkpt lat="46.23891" lon="4.13694">
        <ele>496</ele>
        <time>2019-03-10T11:37:41Z</time>
      </trkpt>
      <trkpt lat="46.23904" lon="4.13595">
        <ele>494</ele>
        <time>2019-03-10T11:38:41Z</time>
      </trkpt>
      <trkpt lat="46.23917" lon="4.13596">
        <ele>494</ele>
        <time>2019-03-10T11:39:41Z</time>
      </trkpt>
      <trkpt lat="46.23956" lon="4.13582">
        <ele>494</ele>
        <time>2019-03-10T11:40:41Z</time>
      </trkpt>
      <trkpt lat="46.23985" lon="4.13577">
        <ele>495</ele>
        <time>2019-03-10T11:41:41Z</time>
      </trkpt>
      <trkpt lat="46.24005" lon="4.13578">
        <ele>495</ele>
        <time>2019-03-10T11:42:41Z</time>
      </trkpt>
      <trkpt lat="46.24019" lon="4.13586">
        <ele>495</ele>
        <time>2019-03-10T11:43:41Z</time>
      </trkpt>
      <trkpt lat="46.24036" lon="4.13606">
        <ele>496</ele>
        <time>2019-03-10T11:44:41Z</time>
      </trkpt>
      <trkpt lat="46.2406" lon="4.13644">
        <ele>497</ele>
        <time>2019-03-10T11:45:41Z</time>
      </trkpt>
      <trkpt lat="46.24071" lon="4.13655">
        <ele>497</ele>
        <time>2019-03-10T11:46:41Z</time>
      </trkpt>
      <trkpt lat="46.24083" lon="4.13664">
        <ele>497</ele>
        <time>2019-03-10T11:47:41Z</time>
      </trkpt>
      <trkpt lat="46.24099" lon="4.13666">
        <ele>497</ele>
        <time>2019-03-10T11:48:41Z</time>
      </trkpt>
      <trkpt lat="46.24152" lon="4.13652">
        <ele>498</ele>
        <time>2019-03-10T11:49:41Z</time>
      </trkpt>
      <trkpt lat="46.24152" lon="4.13651">
        <ele>498</ele>
        <time>2019-03-10T11:50:41Z</time>
      </trkpt>
      <trkpt lat="46.24179" lon="4.13612">
        <ele>497</ele>
        <time>2019-03-10T11:51:41Z</time>
      </trkpt>
      <trkpt lat="46.24179" lon="4.13612">
        <ele>497</ele>
        <time>2019-03-10T11:52:41Z</time>
      </trkpt>
      <trkpt lat="46.24214" lon="4.13597">
        <ele>497</ele>
        <time>2019-03-10T11:53:41Z</time>
      </trkpt>
      <trkpt lat="46.24214" lon="4.13597">
        <ele>497</ele>
        <time>2019-03-10T11:54:41Z</time>
      </trkpt>
      <trkpt lat="46.24257" lon="4.1359">
        <ele>497</ele>
        <time>2019-03-10T11:55:41Z</time>
      </trkpt>
      <trkpt lat="46.24256" lon="4.13589">
        <ele>497</ele>
        <time>2019-03-10T11:56:41Z</time>
      </trkpt>
      <trkpt lat="46.24258" lon="4.13589">
        <ele>497</ele>
        <time>2019-03-10T11:57:41Z</time>
      </trkpt>
      <trkpt lat="46.24266" lon="4.13542">
        <ele>497</ele>
        <time>2019-03-10T11:58:41Z</time>
      </trkpt>
      <trkpt lat="46.24284" lon="4.13483">
        <ele>496</ele>
        <time>2019-03-10T11:59:41Z</time>
      </trkpt>
      <trkpt lat="46.2431" lon="4.13422">
        <ele>493</ele>
        <time>2019-03-10T12:00:41Z</time>
      </trkpt>
      <trkpt lat="46.24311" lon="4.13422">
        <ele>493</ele>
        <time>2019-03-10T12:01:41Z</time>
      </trkpt>
      <trkpt lat="46.24341" lon="4.13362">
        <ele>488</ele>
        <time>2019-03-10T12:02:41Z</time>
      </trkpt>
      <trkpt lat="46.24341" lon="4.13362">
        <ele>488</ele>
        <time>2019-03-10T12:03:41Z</time>
      </trkpt>
      <trkpt lat="46.24361" lon="4.13282">
        <ele>482</ele>
        <time>2019-03-10T12:04:41Z</time>
      </trkpt>
      <trkpt lat="46.24361" lon="4.13282">
        <ele>482</ele>
        <time>2019-03-10T12:05:41Z</time>
      </trkpt>
      <trkpt lat="46.24384" lon="4.13208">
        <ele>477</ele>
        <time>2019-03-10T12:06:41Z</time>
      </trkpt>
      <trkpt lat="46.24384" lon="4.13208">
        <ele>477</ele>
        <time>2019-03-10T12:07:41Z</time>
      </trkpt>
      <trkpt lat="46.24422" lon="4.13134">
        <ele>472</ele>
        <time>2019-03-10T12:08:41Z</time>
      </trkpt>
      <trkpt lat="46.24422" lon="4.13134">
        <ele>472</ele>
        <time>2019-03-10T12:09:41Z</time>
      </trkpt>
      <trkpt lat="46.24468" lon="4.13043">
        <ele>468</ele>
        <time>2019-03-10T12:10:41Z</time>
      </trkpt>
      <trkpt lat="46.24468" lon="4.13043">
        <ele>468</ele>
        <time>2019-03-10T12:11:41Z</time>
      </trkpt>
      <trkpt lat="46.24533" lon="4.12956">
        <ele>467</ele>
        <time>2019-03-10T12:12:41Z</time>
      </trkpt>
      <trkpt lat="46.24533" lon="4.12956">
        <ele>467</ele>
        <time>2019-03-10T12:13:41Z</time>
      </trkpt>
      <trkpt lat="46.24599" lon="4.1288">
        <ele>466</ele>
        <time>2019-03-10T12:14:41Z</time>
      </trkpt>
      <trkpt lat="46.24599" lon="4.1288">
        <ele>466</ele>
        <time>2019-03-10T12:15:41Z</time>
      </trkpt>
      <trkpt lat="46.24629" lon="4.12785">
        <ele>460</ele>
        <time>2019-03-10T12:16:41Z</time>
      </trkpt>
      <trkpt lat="46.24629" lon="4.12785">
        <ele>460</ele>
        <time>2019-03-10T12:17:41Z</time>
      </trkpt>
      <trkpt lat="46.24696" lon="4.12658">
        <ele>451</ele>
        <time>2019-03-10T12:18:41Z</time>
      </trkpt>
      <trkpt lat="46.24696" lon="4.12658">
        <ele>451</ele>
        <time>2019-03-10T12:19:41Z</time>
      </trkpt>
      <trkpt lat="46.24763" lon="4.12554">
        <ele>444</ele>
        <time>2019-03-10T12:20:41Z</time>
      </trkpt>
      <trkpt lat="46.24763" lon="4.12554">
        <ele>444</ele>
        <time>2019-03-10T12:21:41Z</time>
      </trkpt>
      <trkpt lat="46.24868" lon="4.12451">
        <ele>438</ele>
        <time>2019-03-10T12:22:41Z</time>
      </trkpt>
      <trkpt lat="46.24868" lon="4.12451">
        <ele>438</ele>
        <time>2019-03-10T12:23:41Z</time>
      </trkpt>
      <trkpt lat="46.2492" lon="4.12397">
        <ele>436</ele>
        <time>2019-03-10T12:24:41Z</time>
      </trkpt>
      <trkpt lat="46.2492" lon="4.12397">
        <ele>436</ele>
        <time>2019-03-10T12:25:41Z</time>
      </trkpt>
      <trkpt lat="46.24962" lon="4.12332">
        <ele>434</ele>
        <time>2019-03-10T12:26:41Z</time>
      </trkpt>
      <trkpt lat="46.24962" lon="4.12332">
        <ele>434</ele>
        <time>2019-03-10T12:27:41Z</time>
      </trkpt>
      <trkpt lat="46.24994" lon="4.12242">
        <ele>430</ele>
        <time>2019-03-10T12:28:41Z</time>
      </trkpt>
      <trkpt lat="46.24994" lon="4.12242">
        <ele>430</ele>
        <time>2019-03-10T12:29:41Z</time>
      </trkpt>
      <trkpt lat="46.25061" lon="4.12159">
        <ele>429</ele>
        <time>2019-03-10T12:30:41Z</time>
      </trkpt>
      <trkpt lat="46.25061" lon="4.12159">
        <ele>429</ele>
        <time>2019-03-10T12:31:41Z</time>
      </trkpt>
      <trkpt lat="46.25042" lon="4.1212">
        <ele>426</ele>
        <time>2019-03-10T12:32:41Z</time>
      </trkpt>
      <trkpt lat="46.25042" lon="4.1212">
        <ele>426</ele>
        <time>2019-03-10T12:33:41Z</time>
      </trkpt>
      <trkpt lat="46.25019" lon="4.12092">
        <ele>423</ele>
        <time>2019-03-10T12:34:41Z</time>
      </trkpt>
      <trkpt lat="46.25019" lon="4.12092">
        <ele>423</ele>
        <time>2019-03-10T12:35:41Z</time>
      </trkpt>
      <trkpt lat="46.24988" lon="4.12068">
        <ele>418</ele>
        <time>2019-03-10T12:36:41Z</time>
      </trkpt>
      <trkpt lat="46.24988" lon="4.12068">
        <ele>418</ele>
        <time>2019-03-10T12:37:41Z</time>
      </trkpt>
      <trkpt lat="46.24953" lon="4.12035">
        <ele>411</ele>
        <time>2019-03-10T12:38:41Z</time>
      </trkpt>
      <trkpt lat="46.24953" lon="4.12035">
        <ele>411</ele>
        <time>2019-03-10T12:39:41Z</time>
      </trkpt>
      <trkpt lat="46.24913" lon="4.11992">
        <ele>406</ele>
        <time>2019-03-10T12:40:41Z</time>
      </trkpt>
      <trkpt lat="46.24913" lon="4.11992">
        <ele>406</ele>
        <time>2019-03-10T12:41:41Z</time>
      </trkpt>
      <trkpt lat="46.24897" lon="4.11949">
        <ele>408</ele>
        <time>2019-03-10T12:42:41Z</time>
      </trkpt>
      <trkpt lat="46.24897" lon="4.11949">
        <ele>408</ele>
        <time>2019-03-10T12:43:41Z</time>
      </trkpt>
      <trkpt lat="46.24912" lon="4.11915">
        <ele>406</ele>
        <time>2019-03-10T12:44:41Z</time>
      </trkpt>
      <trkpt lat="46.24912" lon="4.11915">
        <ele>406</ele>
        <time>2019-03-10T12:45:41Z</time>
      </trkpt>
      <trkpt lat="46.24921" lon="4.11879">
        <ele>406</ele>
        <time>2019-03-10T12:46:41Z</time>
      </trkpt>
      <trkpt lat="46.24921" lon="4.11879">
        <ele>406</ele>
        <time>2019-03-10T12:47:41Z</time>
      </trkpt>
      <trkpt lat="46.24923" lon="4.11841">
        <ele>407</ele>
        <time>2019-03-10T12:48:41Z</time>
      </trkpt>
      <trkpt lat="46.24923" lon="4.11841">
        <ele>407</ele>
        <time>2019-03-10T12:49:41Z</time>
      </trkpt>
      <trkpt lat="46.24927" lon="4.11806">
        <ele>409</ele>
        <time>2019-03-10T12:50:41Z</time>
      </trkpt>
      <trkpt lat="46.24927" lon="4.11806">
        <ele>409</ele>
        <time>2019-03-10T12:51:41Z</time>
      </trkpt>
      <trkpt lat="46.24916" lon="4.11768">
        <ele>415</ele>
        <time>2019-03-10T12:52:41Z</time>
      </trkpt>
      <trkpt lat="46.24916" lon="4.11768">
        <ele>415</ele>
        <time>2019-03-10T12:53:41Z</time>
      </trkpt>
      <trkpt lat="46.24905" lon="4.11723">
        <ele>419</ele>
        <time>2019-03-10T12:54:41Z</time>
      </trkpt>
      <trkpt lat="46.24905" lon="4.11723">
        <ele>419</ele>
        <time>2019-03-10T12:55:41Z</time>
      </trkpt>
      <trkpt lat="46.24894" lon="4.11695">
        <ele>422</ele>
        <time>2019-03-10T12:56:41Z</time>
      </trkpt>
      <trkpt lat="46.24894" lon="4.11695">
        <ele>422</ele>
        <time>2019-03-10T12:57:41Z</time>
      </trkpt>
      <trkpt lat="46.24885" lon="4.11687">
        <ele>423</ele>
        <time>2019-03-10T12:58:41Z</time>
      </trkpt>
      <trkpt lat="46.24885" lon="4.11687">
        <ele>423</ele>
        <time>2019-03-10T12:59:41Z</time>
      </trkpt>
      <trkpt lat="46.24867" lon="4.1166">
        <ele>428</ele>
        <time>2019-03-10T13:00:41Z</time>
      </trkpt>
      <trkpt lat="46.24867" lon="4.1166">
        <ele>428</ele>
        <time>2019-03-10T13:01:41Z</time>
      </trkpt>
      <trkpt lat="46.24853" lon="4.11575">
        <ele>437</ele>
        <time>2019-03-10T13:02:41Z</time>
      </trkpt>
      <trkpt lat="46.24853" lon="4.11575">
        <ele>437</ele>
        <time>2019-03-10T13:03:41Z</time>
      </trkpt>
      <trkpt lat="46.2485" lon="4.11507">
        <ele>441</ele>
        <time>2019-03-10T13:04:41Z</time>
      </trkpt>
      <trkpt lat="46.2485" lon="4.11507">
        <ele>441</ele>
        <time>2019-03-10T13:05:41Z</time>
      </trkpt>
      <trkpt lat="46.24844" lon="4.11397">
        <ele>447</ele>
        <time>2019-03-10T13:06:41Z</time>
      </trkpt>
      <trkpt lat="46.24844" lon="4.11397">
        <ele>447</ele>
        <time>2019-03-10T13:07:41Z</time>
      </trkpt>
      <trkpt lat="46.24746" lon="4.11184">
        <ele>460</ele>
        <time>2019-03-10T13:08:41Z</time>
      </trkpt>
      <trkpt lat="46.24746" lon="4.11184">
        <ele>460</ele>
        <time>2019-03-10T13:09:41Z</time>
      </trkpt>
      <trkpt lat="46.24699" lon="4.11094">
        <ele>459</ele>
        <time>2019-03-10T13:10:41Z</time>
      </trkpt>
      <trkpt lat="46.24699" lon="4.11094">
        <ele>459</ele>
        <time>2019-03-10T13:11:41Z</time>
      </trkpt>
      <trkpt lat="46.24676" lon="4.11069">
        <ele>458</ele>
        <time>2019-03-10T13:12:41Z</time>
      </trkpt>
      <trkpt lat="46.24672" lon="4.11066">
        <ele>458</ele>
        <time>2019-03-10T13:13:41Z</time>
      </trkpt>
      <trkpt lat="46.24674" lon="4.1106">
        <ele>458</ele>
        <time>2019-03-10T13:14:41Z</time>
      </trkpt>
      <trkpt lat="46.24679" lon="4.11064">
        <ele>458</ele>
        <time>2019-03-10T13:15:41Z</time>
      </trkpt>
      <trkpt lat="46.24649" lon="4.11037">
        <ele>457</ele>
        <time>2019-03-10T13:16:41Z</time>
      </trkpt>
      <trkpt lat="46.24649" lon="4.11037">
        <ele>457</ele>
        <time>2019-03-10T13:17:41Z</time>
      </trkpt>
      <trkpt lat="46.24612" lon="4.1099">
        <ele>457</ele>
        <time>2019-03-10T13:18:41Z</time>
      </trkpt>
      <trkpt lat="46.24612" lon="4.1099">
        <ele>457</ele>
        <time>2019-03-10T13:19:41Z</time>
      </trkpt>
      <trkpt lat="46.24568" lon="4.10951">
        <ele>455</ele>
        <time>2019-03-10T13:20:41Z</time>
      </trkpt>
      <trkpt lat="46.24568" lon="4.10951">
        <ele>455</ele>
        <time>2019-03-10T13:21:41Z</time>
      </trkpt>
      <trkpt lat="46.24572" lon="4.1088">
        <ele>455</ele>
        <time>2019-03-10T13:22:41Z</time>
      </trkpt>
      <trkpt lat="46.24572" lon="4.1088">
        <ele>455</ele>
        <time>2019-03-10T13:23:41Z</time>
      </trkpt>
      <trkpt lat="46.24556" lon="4.10807">
        <ele>453</ele>
        <time>2019-03-10T13:24:41Z</time>
      </trkpt>
      <trkpt lat="46.24556" lon="4.10807">
        <ele>453</ele>
        <time>2019-03-10T13:25:41Z</time>
      </trkpt>
      <trkpt lat="46.24558" lon="4.10714">
        <ele>451</ele>
        <time>2019-03-10T13:26:41Z</time>
      </trkpt>
      <trkpt lat="46.24558" lon="4.10714">
        <ele>451</ele>
        <time>2019-03-10T13:27:41Z</time>
      </trkpt>
      <trkpt lat="46.2455" lon="4.10655">
        <ele>448</ele>
        <time>2019-03-10T13:28:41Z</time>
      </trkpt>
      <trkpt lat="46.2455" lon="4.10655">
        <ele>448</ele>
        <time>2019-03-10T13:29:41Z</time>
      </trkpt>
      <trkpt lat="46.2453" lon="4.10617">
        <ele>446</ele>
        <time>2019-03-10T13:30:41Z</time>
      </trkpt>
      <trkpt lat="46.2453" lon="4.10617">
        <ele>446</ele>
        <time>2019-03-10T13:31:41Z</time>
      </trkpt>
      <trkpt lat="46.24513" lon="4.10539">
        <ele>445</ele>
        <time>2019-03-10T13:32:41Z</time>
      </trkpt>
      <trkpt lat="46.24513" lon="4.10539">
        <ele>445</ele>
        <time>2019-03-10T13:33:41Z</time>
      </trkpt>
      <trkpt lat="46.24499" lon="4.10493">
        <ele>445</ele>
        <time>2019-03-10T13:34:41Z</time>
      </trkpt>
      <trkpt lat="46.24499" lon="4.10493">
        <ele>445</ele>
        <time>2019-03-10T13:35:41Z</time>
      </trkpt>
      <trkpt lat="46.24468" lon="4.10437">
        <ele>443</ele>
        <time>2019-03-10T13:36:41Z</time>
      </trkpt>
      <trkpt lat="46.24468" lon="4.10437">
        <ele>443</ele>
        <time>2019-03-10T13:37:41Z</time>
      </trkpt>
      <trkpt lat="46.24448" lon="4.10343">
        <ele>439</ele>
        <time>2019-03-10T13:38:41Z</time>
      </trkpt>
      <trkpt lat="46.24448" lon="4.10343">
        <ele>439</ele>
        <time>2019-03-10T13:39:41Z</time>
      </trkpt>
      <trkpt lat="46.24428" lon="4.10201">
        <ele>435</ele>
        <time>2019-03-10T13:40:41Z</time>
      </trkpt>
      <trkpt lat="46.24428" lon="4.10201">
        <ele>435</ele>
        <time>2019-03-10T13:41:41Z</time>
      </trkpt>
      <trkpt lat="46.24404" lon="4.1013">
        <ele>431</ele>
        <time>2019-03-10T13:42:41Z</time>
      </trkpt>
      <trkpt lat="46.24404" lon="4.1013">
        <ele>431</ele>
        <time>2019-03-10T13:43:41Z</time>
      </trkpt>
      <trkpt lat="46.24384" lon="4.10069">
        <ele>428</ele>
        <time>2019-03-10T13:44:41Z</time>
      </trkpt>
      <trkpt lat="46.24384" lon="4.10069">
        <ele>428</ele>
        <time>2019-03-10T13:45:41Z</time>
      </trkpt>
      <trkpt lat="46.24303" lon="4.09964">
        <ele>428</ele>
        <time>2019-03-10T13:46:41Z</time>
      </trkpt>
      <trkpt lat="46.24303" lon="4.09964">
        <ele>428</ele>
        <time>2019-03-10T13:47:41Z</time>
      </trkpt>
      <trkpt lat="46.24284" lon="4.09926">
        <ele>428</ele>
        <time>2019-03-10T13:48:41Z</time>
      </trkpt>
      <trkpt lat="46.24284" lon="4.09926">
        <ele>428</ele>
        <time>2019-03-10T13:49:41Z</time>
      </trkpt>
      <trkpt lat="46.24193" lon="4.09936">
        <ele>425</ele>
        <time>2019-03-10T13:50:41Z</time>
      </trkpt>
      <trkpt lat="46.24193" lon="4.09936">
        <ele>425</ele>
        <time>2019-03-10T13:51:41Z</time>
      </trkpt>
      <trkpt lat="46.24175" lon="4.09927">
        <ele>424</ele>
        <time>2019-03-10T13:52:41Z</time>
      </trkpt>
      <trkpt lat="46.24175" lon="4.09927">
        <ele>424</ele>
        <time>2019-03-10T13:53:41Z</time>
      </trkpt>
      <trkpt lat="46.24123" lon="4.09901">
        <ele>421</ele>
        <time>2019-03-10T13:54:41Z</time>
      </trkpt>
      <trkpt lat="46.24123" lon="4.09901">
        <ele>421</ele>
        <time>2019-03-10T13:55:41Z</time>
      </trkpt>
      <trkpt lat="46.24093" lon="4.09895">
        <ele>420</ele>
        <time>2019-03-10T13:56:41Z</time>
      </trkpt>
      <trkpt lat="46.24093" lon="4.09895">
        <ele>420</ele>
        <time>2019-03-10T13:57:41Z</time>
      </trkpt>
      <trkpt lat="46.24018" lon="4.09906">
        <ele>417</ele>
        <time>2019-03-10T13:58:41Z</time>
      </trkpt>
      <trkpt lat="46.24018" lon="4.09906">
        <ele>417</ele>
        <time>2019-03-10T13:59:41Z</time>
      </trkpt>
      <trkpt lat="46.23988" lon="4.09897">
        <ele>415</ele>
        <time>2019-03-10T14:00:41Z</time>
      </trkpt>
      <trkpt lat="46.23988" lon="4.09897">
        <ele>415</ele>
        <time>2019-03-10T14:01:41Z</time>
      </trkpt>
      <trkpt lat="46.23965" lon="4.09882">
        <ele>413</ele>
        <time>2019-03-10T14:02:41Z</time>
      </trkpt>
      <trkpt lat="46.23965" lon="4.09882">
        <ele>413</ele>
        <time>2019-03-10T14:03:41Z</time>
      </trkpt>
      <trkpt lat="46.23833" lon="4.09886">
        <ele>395</ele>
        <time>2019-03-10T14:04:41Z</time>
      </trkpt>
      <trkpt lat="46.23833" lon="4.09886">
        <ele>395</ele>
        <time>2019-03-10T14:05:41Z</time>
      </trkpt>
      <trkpt lat="46.2378" lon="4.09891">
        <ele>386</ele>
        <time>2019-03-10T14:06:41Z</time>
      </trkpt>
      <trkpt lat="46.2378" lon="4.09891">
        <ele>386</ele>
        <time>2019-03-10T14:07:41Z</time>
      </trkpt>
      <trkpt lat="46.23742" lon="4.09902">
        <ele>381</ele>
        <time>2019-03-10T14:08:41Z</time>
      </trkpt>
      <trkpt lat="46.23742" lon="4.09902">
        <ele>381</ele>
        <time>2019-03-10T14:09:41Z</time>
      </trkpt>
      <trkpt lat="46.23716" lon="4.09891">
        <ele>381</ele>
        <time>2019-03-10T14:10:41Z</time>
      </trkpt>
      <trkpt lat="46.23716" lon="4.09891">
        <ele>381</ele>
        <time>2019-03-10T14:11:41Z</time>
      </trkpt>
      <trkpt lat="46.23687" lon="4.09888">
        <ele>381</ele>
        <time>2019-03-10T14:12:41Z</time>
      </trkpt>
      <trkpt lat="46.23687" lon="4.09888">
        <ele>381</ele>
        <time>2019-03-10T14:13:41Z</time>
      </trkpt>
      <trkpt lat="46.23598" lon="4.09896">
        <ele>389</ele>
        <time>2019-03-10T14:14:41Z</time>
      </trkpt>
      <trkpt lat="46.23598" lon="4.09896">
        <ele>389</ele>
        <time>2019-03-10T14:15:41Z</time>
      </trkpt>
      <trkpt lat="46.23488" lon="4.09901">
        <ele>401</ele>
        <time>2019-03-10T14:16:41Z</time>
      </trkpt>
      <trkpt lat="46.23488" lon="4.09901">
        <ele>401</ele>
        <time>2019-03-10T14:17:41Z</time>
      </trkpt>
      <trkpt lat="46.23436" lon="4.09897">
        <ele>402</ele>
        <time>2019-03-10T14:18:41Z</time>
      </trkpt>
      <trkpt lat="46.23436" lon="4.09897">
        <ele>402</ele>
        <time>2019-03-10T14:19:41Z</time>
      </trkpt>
      <trkpt lat="46.23349" lon="4.09889">
        <ele>404</ele>
        <time>2019-03-10T14:20:41Z</time>
      </trkpt>
      <trkpt lat="46.23344" lon="4.09892">
        <ele>404</ele>
        <time>2019-03-10T14:21:41Z</time>
      </trkpt>
      <trkpt lat="46.23293" lon="4.09845">
        <ele>404</ele>
        <time>2019-03-10T14:22:41Z</time>
      </trkpt>
      <trkpt lat="46.23258" lon="4.09855">
        <ele>405</ele>
        <time>2019-03-10T14:23:41Z</time>
      </trkpt>
      <trkpt lat="46.23208" lon="4.09883">
        <ele>404</ele>
        <time>2019-03-10T14:24:41Z</time>
      </trkpt>
      <trkpt lat="46.23151" lon="4.0989">
        <ele>402</ele>
        <time>2019-03-10T14:25:41Z</time>
      </trkpt>
      <trkpt lat="46.23118" lon="4.09925">
        <ele>395</ele>
        <time>2019-03-10T14:26:41Z</time>
      </trkpt>
      <trkpt lat="46.23049" lon="4.09912">
        <ele>383</ele>
        <time>2019-03-10T14:27:41Z</time>
      </trkpt>
      <trkpt lat="46.22993" lon="4.09856">
        <ele>372</ele>
        <time>2019-03-10T14:28:41Z</time>
      </trkpt>
      <trkpt lat="46.22951" lon="4.09804">
        <ele>367</ele>
        <time>2019-03-10T14:29:41Z</time>
      </trkpt>
      <trkpt lat="46.22913" lon="4.09749">
        <ele>365</ele>
        <time>2019-03-10T14:30:41Z</time>
      </trkpt>
      <trkpt lat="46.2289" lon="4.09724">
        <ele>365</ele>
        <time>2019-03-10T14:31:41Z</time>
      </trkpt>
      <trkpt lat="46.22867" lon="4.09691">
        <ele>367</ele>
        <time>2019-03-10T14:32:41Z</time>
      </trkpt>
      <trkpt lat="46.22856" lon="4.09679">
        <ele>368</ele>
        <time>2019-03-10T14:33:41Z</time>
      </trkpt>
      <trkpt lat="46.22844" lon="4.09669">
        <ele>369</ele>
        <time>2019-03-10T14:34:41Z</time>
      </trkpt>
      <trkpt lat="46.22812" lon="4.0966">
        <ele>364</ele>
        <time>2019-03-10T14:35:41Z</time>
      </trkpt>
      <trkpt lat="46.22794" lon="4.09649">
        <ele>361</ele>
        <time>2019-03-10T14:36:41Z</time>
      </trkpt>
      <trkpt lat="46.22788" lon="4.0964">
        <ele>359</ele>
        <time>2019-03-10T14:37:41Z</time>
      </trkpt>
      <trkpt lat="46.22777" lon="4.09614">
        <ele>357</ele>
        <time>2019-03-10T14:38:41Z</time>
      </trkpt>
      <trkpt lat="46.22775" lon="4.09603">
        <ele>357</ele>
        <time>2019-03-10T14:39:41Z</time>
      </trkpt>
      <trkpt lat="46.22746" lon="4.09595">
        <ele>349</ele>
        <time>2019-03-10T14:40:41Z</time>
      </trkpt>
      <trkpt lat="46.22726" lon="4.09587">
        <ele>344</ele>
        <time>2019-03-10T14:41:41Z</time>
      </trkpt>
      <trkpt lat="46.22646" lon="4.0952">
        <ele>327</ele>
        <time>2019-03-10T14:42:41Z</time>
      </trkpt>
      <trkpt lat="46.22621" lon="4.0951">
        <ele>323</ele>
        <time>2019-03-10T14:43:41Z</time>
      </trkpt>
      <trkpt lat="46.22576" lon="4.09498">
        <ele>319</ele>
        <time>2019-03-10T14:44:41Z</time>
      </trkpt>
      <trkpt lat="46.22561" lon="4.09486">
        <ele>321</ele>
        <time>2019-03-10T14:45:41Z</time>
      </trkpt>
      <trkpt lat="46.22497" lon="4.09531">
        <ele>330</ele>
        <time>2019-03-10T14:46:41Z</time>
      </trkpt>
      <trkpt lat="46.22462" lon="4.09595">
        <ele>337</ele>
        <time>2019-03-10T14:47:41Z</time>
      </trkpt>
      <trkpt lat="46.22415" lon="4.09638">
        <ele>348</ele>
        <time>2019-03-10T14:48:41Z</time>
      </trkpt>
      <trkpt lat="46.22335" lon="4.09689">
        <ele>361</ele>
        <time>2019-03-10T14:49:41Z</time>
      </trkpt>
      <trkpt lat="46.22263" lon="4.09782">
        <ele>373</ele>
        <time>2019-03-10T14:50:41Z</time>
      </trkpt>
      <trkpt lat="46.22227" lon="4.09809">
        <ele>378</ele>
        <time>2019-03-10T14:51:41Z</time>
      </trkpt>
      <trkpt lat="46.22193" lon="4.09846">
        <ele>384</ele>
        <time>2019-03-10T14:52:41Z</time>
      </trkpt>
      <trkpt lat="46.22162" lon="4.09867">
        <ele>388</ele>
        <time>2019-03-10T14:53:41Z</time>
      </trkpt>
      <trkpt lat="46.22153" lon="4.09878">
        <ele>389</ele>
        <time>2019-03-10T14:54:41Z</time>
      </trkpt>
      <trkpt lat="46.22138" lon="4.09908">
        <ele>390</ele>
        <time>2019-03-10T14:55:41Z</time>
      </trkpt>
      <trkpt lat="46.221" lon="4.09942">
        <ele>391</ele>
        <time>2019-03-10T14:56:41Z</time>
      </trkpt>
      <trkpt lat="46.22088" lon="4.09957">
        <ele>392</ele>
        <time>2019-03-10T14:57:41Z</time>
      </trkpt>
      <trkpt lat="46.22072" lon="4.09981">
        <ele>393</ele>
        <time>2019-03-10T14:58:41Z</time>
      </trkpt>
      <trkpt lat="46.22066" lon="4.09996">
        <ele>394</ele>
        <time>2019-03-10T14:59:41Z</time>
      </trkpt>
      <trkpt lat="46.22066" lon="4.10001">
        <ele>394</ele>
        <time>2019-03-10T15:00:41Z</time>
      </trkpt>
      <trkpt lat="46.22067" lon="4.10001">
        <ele>394</ele>
        <time>2019-03-10T15:01:41Z</time>
      </trkpt>
      <trkpt lat="46.22049" lon="4.09972">
        <ele>394</ele>
        <time>2019-03-10T15:02:41Z</time>
      </trkpt>
      <trkpt lat="46.22049" lon="4.09972">
        <ele>394</ele>
        <time>2019-03-10T15:03:41Z</time>
      </trkpt>
      <trkpt lat="46.22037" lon="4.09966">
        <ele>394</ele>
        <time>2019-03-10T15:04:41Z</time>
      </trkpt>
      <trkpt lat="46.22037" lon="4.09966">
        <ele>394</ele>
        <time>2019-03-10T15:05:41Z</time>
      </trkpt>
      <trkpt lat="46.21911" lon="4.09985">
        <ele>393</ele>
        <time>2019-03-10T15:06:41Z</time>
      </trkpt>
      <trkpt lat="46.21911" lon="4.09985">
        <ele>393</ele>
        <time>2019-03-10T15:07:41Z</time>
      </trkpt>
      <trkpt lat="46.219" lon="4.09991">
        <ele>393</ele>
        <time>2019-03-10T15:08:41Z</time>
      </trkpt>
      <trkpt lat="46.219" lon="4.09991">
        <ele>393</ele>
        <time>2019-03-10T15:09:41Z</time>
      </trkpt>
      <trkpt lat="46.21802" lon="4.09769">
        <ele>387</ele>
        <time>2019-03-10T15:10:41Z</time>
      </trkpt>
      <trkpt lat="46.21802" lon="4.09769">
        <ele>387</ele>
        <time>2019-03-10T15:11:41Z</time>
      </trkpt>
      <trkpt lat="46.21757" lon="4.09609">
        <ele>383</ele>
        <time>2019-03-10T15:12:41Z</time>
      </trkpt>
      <trkpt lat="46.21757" lon="4.09609">
        <ele>383</ele>
        <time>2019-03-10T15:13:41Z</time>
      </trkpt>
      <trkpt lat="46.21748" lon="4.09491">
        <ele>379</ele>
        <time>2019-03-10T15:14:41Z</time>
      </trkpt>
      <trkpt lat="46.21748" lon="4.09491">
        <ele>379</ele>
        <time>2019-03-10T15:15:41Z</time>
      </trkpt>
      <trkpt lat="46.21734" lon="4.09421">
        <ele>378</ele>
        <time>2019-03-10T15:16:41Z</time>
      </trkpt>
      <trkpt lat="46.21734" lon="4.09421">
        <ele>378</ele>
        <time>2019-03-10T15:17:41Z</time>
      </trkpt>
      <trkpt lat="46.21711" lon="4.09363">
        <ele>377</ele>
        <time>2019-03-10T15:18:41Z</time>
      </trkpt>
      <trkpt lat="46.21711" lon="4.09363">
        <ele>377</ele>
        <time>2019-03-10T15:19:41Z</time>
      </trkpt>
      <trkpt lat="46.2173" lon="4.09297">
        <ele>377</ele>
        <time>2019-03-10T15:20:41Z</time>
      </trkpt>
      <trkpt lat="46.2173" lon="4.09297">
        <ele>377</ele>
        <time>2019-03-10T15:21:41Z</time>
      </trkpt>
      <trkpt lat="46.21708" lon="4.09239">
        <ele>374</ele>
        <time>2019-03-10T15:22:41Z</time>
      </trkpt>
      <trkpt lat="46.21708" lon="4.09239">
        <ele>374</ele>
        <time>2019-03-10T15:23:41Z</time>
      </trkpt>
      <trkpt lat="46.21669" lon="4.09178">
        <ele>372</ele>
        <time>2019-03-10T15:24:41Z</time>
      </trkpt>
      <trkpt lat="46.21669" lon="4.09178">
        <ele>372</ele>
        <time>2019-03-10T15:25:41Z</time>
      </trkpt>
      <trkpt lat="46.21649" lon="4.09129">
        <ele>371</ele>
        <time>2019-03-10T15:26:41Z</time>
      </trkpt>
      <trkpt lat="46.21649" lon="4.09129">
        <ele>371</ele>
        <time>2019-03-10T15:27:41Z</time>
      </trkpt>
      <trkpt lat="46.21631" lon="4.09135">
        <ele>370</ele>
        <time>2019-03-10T15:28:41Z</time>
      </trkpt>
      <trkpt lat="46.21631" lon="4.09135">
        <ele>370</ele>
        <time>2019-03-10T15:29:41Z</time>
      </trkpt>
      <trkpt lat="46.21577" lon="4.09047">
        <ele>365</ele>
        <time>2019-03-10T15:30:41Z</time>
      </trkpt>
      <trkpt lat="46.21577" lon="4.09047">
        <ele>365</ele>
        <time>2019-03-10T15:31:41Z</time>
      </trkpt>
      <trkpt lat="46.21555" lon="4.08963">
        <ele>363</ele>
        <time>2019-03-10T15:32:41Z</time>
      </trkpt>
      <trkpt lat="46.21554" lon="4.08961">
        <ele>363</ele>
        <time>2019-03-10T15:33:41Z</time>
      </trkpt>
      <trkpt lat="46.21553" lon="4.08962">
        <ele>363</ele>
        <time>2019-03-10T15:34:41Z</time>
      </trkpt>
      <trkpt lat="46.21548" lon="4.08945">
        <ele>363</ele>
        <time>2019-03-10T15:35:41Z</time>
      </trkpt>
      <trkpt lat="46.21523" lon="4.08901">
        <ele>361</ele>
        <time>2019-03-10T15:36:41Z</time>
      </trkpt>
      <trkpt lat="46.21516" lon="4.08883">
        <ele>361</ele>
        <time>2019-03-10T15:37:41Z</time>
      </trkpt>
      <trkpt lat="46.21502" lon="4.08863">
        <ele>360</ele>
        <time>2019-03-10T15:38:41Z</time>
      </trkpt>
      <trkpt lat="46.21471" lon="4.08835">
        <ele>359</ele>
        <time>2019-03-10T15:39:41Z</time>
      </trkpt>
      <trkpt lat="46.21411" lon="4.08788">
        <ele>356</ele>
        <time>2019-03-10T15:40:41Z</time>
      </trkpt>
      <trkpt lat="46.21366" lon="4.08741">
        <ele>355</ele>
        <time>2019-03-10T15:41:41Z</time>
      </trkpt>
      <trkpt lat="46.21323" lon="4.08685">
        <ele>352</ele>
        <time>2019-03-10T15:42:41Z</time>
      </trkpt>
      <trkpt lat="46.21278" lon="4.08665">
        <ele>349</ele>
        <time>2019-03-10T15:43:41Z</time>
      </trkpt>
      <trkpt lat="46.21266" lon="4.08605">
        <ele>348</ele>
        <time>2019-03-10T15:44:41Z</time>
      </trkpt>
      <trkpt lat="46.21221" lon="4.08492">
        <ele>345</ele>
        <time>2019-03-10T15:45:41Z</time>
      </trkpt>
      <trkpt lat="46.21162" lon="4.08377">
        <ele>344</ele>
        <time>2019-03-10T15:46:41Z</time>
      </trkpt>
      <trkpt lat="46.2115" lon="4.08325">
        <ele>343</ele>
        <time>2019-03-10T15:47:41Z</time>
      </trkpt>
      <trkpt lat="46.21151" lon="4.083">
        <ele>342</ele>
        <time>2019-03-10T15:48:41Z</time>
      </trkpt>
      <trkpt lat="46.21149" lon="4.0826">
        <ele>340</ele>
        <time>2019-03-10T15:49:41Z</time>
      </trkpt>
      <trkpt lat="46.21113" lon="4.08178">
        <ele>332</ele>
        <time>2019-03-10T15:50:41Z</time>
      </trkpt>
      <trkpt lat="46.21056" lon="4.08035">
        <ele>320</ele>
        <time>2019-03-10T15:51:41Z</time>
      </trkpt>
      <trkpt lat="46.21013" lon="4.07895">
        <ele>318</ele>
        <time>2019-03-10T15:52:41Z</time>
      </trkpt>
      <trkpt lat="46.20988" lon="4.07851">
        <ele>318</ele>
        <time>2019-03-10T15:53:41Z</time>
      </trkpt>
      <trkpt lat="46.20977" lon="4.07768">
        <ele>315</ele>
        <time>2019-03-10T15:54:41Z</time>
      </trkpt>
      <trkpt lat="46.20957" lon="4.07719">
        <ele>313</ele>
        <time>2019-03-10T15:55:41Z</time>
      </trkpt>
      <trkpt lat="46.20938" lon="4.07688">
        <ele>311</ele>
        <time>2019-03-10T15:56:41Z</time>
      </trkpt>
      <trkpt lat="46.20897" lon="4.07656">
        <ele>308</ele>
        <time>2019-03-10T15:57:41Z</time>
      </trkpt>
      <trkpt lat="46.20867" lon="4.07621">
        <ele>301</ele>
        <time>2019-03-10T15:58:41Z</time>
      </trkpt>
      <trkpt lat="46.20837" lon="4.07602">
        <ele>298</ele>
        <time>2019-03-10T15:59:41Z</time>
      </trkpt>
      <trkpt lat="46.20811" lon="4.07602">
        <ele>293</ele>
        <time>2019-03-10T16:00:41Z</time>
      </trkpt>
      <trkpt lat="46.20786" lon="4.0762">
        <ele>289</ele>
        <time>2019-03-10T16:01:41Z</time>
      </trkpt>
      <trkpt lat="46.20751" lon="4.0766">
        <ele>285</ele>
        <time>2019-03-10T16:02:41Z</time>
      </trkpt>
      <trkpt lat="46.2072" lon="4.07685">
        <ele>282</ele>
        <time>2019-03-10T16:03:41Z</time>
      </trkpt>
      <trkpt lat="46.20686" lon="4.07698">
        <ele>277</ele>
        <time>2019-03-10T16:04:41Z</time>
      </trkpt>
      <trkpt lat="46.2066" lon="4.07713">
        <ele>274</ele>
        <time>2019-03-10T16:05:41Z</time>
      </trkpt>
      <trkpt lat="46.20655" lon="4.07711">
        <ele>273</ele>
        <time>2019-03-10T16:06:41Z</time>
      </trkpt>
      <trkpt lat="46.2066" lon="4.07699">
        <ele>273</ele>
        <time>2019-03-10T16:07:41Z</time>
      </trkpt>
      <trkpt lat="46.20655" lon="4.07711">
        <ele>273</ele>
        <time>2019-03-10T16:08:41Z</time>
      </trkpt>
      <trkpt lat="46.20647" lon="4.07703">
        <ele>272</ele>
        <time>2019-03-10T16:09:41Z</time>
      </trkpt>
      <trkpt lat="46.20641" lon="4.07692">
        <ele>271</ele>
        <time>2019-03-10T16:10:41Z</time>
      </trkpt>
      <trkpt lat="46.20593" lon="4.07655">
        <ele>266</ele>
        <time>2019-03-10T16:11:41Z</time>
      </trkpt>
      <trkpt lat="46.20588" lon="4.07657">
        <ele>265</ele>
        <time>2019-03-10T16:12:41Z</time>
      </trkpt>
      <trkpt lat="46.20582" lon="4.07644">
        <ele>264</ele>
        <time>2019-03-10T16:13:41Z</time>
      </trkpt>
      <trkpt lat="46.20549" lon="4.07617">
        <ele>260</ele>
        <time>2019-03-10T16:14:41Z</time>
      </trkpt>
      <trkpt lat="46.2052" lon="4.07596">
        <ele>258</ele>
        <time>2019-03-10T16:15:41Z</time>
      </trkpt>
      <trkpt lat="46.20506" lon="4.07581">
        <ele>257</ele>
        <time>2019-03-10T16:16:41Z</time>
      </trkpt>
      <trkpt lat="46.20473" lon="4.07524">
        <ele>254</ele>
        <time>2019-03-10T16:17:41Z</time>
      </trkpt>
      <trkpt lat="46.20463" lon="4.07516">
        <ele>253</ele>
        <time>2019-03-10T16:18:41Z</time>
      </trkpt>
      <trkpt lat="46.20367" lon="4.07466">
        <ele>251</ele>
        <time>2019-03-10T16:19:41Z</time>
      </trkpt>
      <trkpt lat="46.20231" lon="4.07222">
        <ele>250</ele>
        <time>2019-03-10T16:20:41Z</time>
      </trkpt>
      <trkpt lat="46.20223" lon="4.07214">
        <ele>250</ele>
        <time>2019-03-10T16:21:41Z</time>
      </trkpt>
      <trkpt lat="46.20213" lon="4.0721">
        <ele>250</ele>
        <time>2019-03-10T16:22:41Z</time>
      </trkpt>
      <trkpt lat="46.202" lon="4.07213">
        <ele>251</ele>
        <time>2019-03-10T16:23:41Z</time>
      </trkpt>
      <trkpt lat="46.20151" lon="4.07261">
        <ele>251</ele>
        <time>2019-03-10T16:24:41Z</time>
      </trkpt>
      <trkpt lat="46.20137" lon="4.07264">
        <ele>251</ele>
        <time>2019-03-10T16:25:41Z</time>
      </trkpt>
      <trkpt lat="46.20126" lon="4.07262">
        <ele>250</ele>
        <time>2019-03-10T16:26:41Z</time>
      </trkpt>
      <trkpt lat="46.2011" lon="4.07249">
        <ele>250</ele>
        <time>2019-03-10T16:27:41Z</time>
      </trkpt>
      <trkpt lat="46.20092" lon="4.0721">
        <ele>251</ele>
        <time>2019-03-10T16:28:41Z</time>
      </trkpt>
      <trkpt lat="46.20011" lon="4.07062">
        <ele>257</ele>
        <time>2019-03-10T16:29:41Z</time>
      </trkpt>
      <trkpt lat="46.20033" lon="4.07043">
        <ele>258</ele>
        <time>2019-03-10T16:30:41Z</time>
      </trkpt>
      <trkpt lat="46.20069" lon="4.0702">
        <ele>259</ele>
        <time>2019-03-10T16:31:41Z</time>
      </trkpt>
      <trkpt lat="46.20109" lon="4.07003">
        <ele>257</ele>
        <time>2019-03-10T16:32:41Z</time>
      </trkpt>
      <trkpt lat="46.20254" lon="4.06889">
        <ele>261</ele>
        <time>2019-03-10T16:33:41Z</time>
      </trkpt>
      <trkpt lat="46.20282" lon="4.0687">
        <ele>261</ele>
        <time>2019-03-10T16:34:41Z</time>
      </trkpt>
      <trkpt lat="46.20415" lon="4.06766">
        <ele>257</ele>
        <time>2019-03-10T16:35:41Z</time>
      </trkpt>
      <trkpt lat="46.20467" lon="4.06704">
        <ele>257</ele>
        <time>2019-03-10T16:36:41Z</time>
      </trkpt>
      <trkpt lat="46.20514" lon="4.06624">
        <ele>258</ele>
        <time>2019-03-10T16:37:41Z</time>
      </trkpt>
      <trkpt lat="46.20556" lon="4.06529">
        <ele>258</ele>
        <time>2019-03-10T16:38:41Z</time>
      </trkpt>
      <trkpt lat="46.20724" lon="4.0612">
        <ele>259</ele>
        <time>2019-03-10T16:39:41Z</time>
      </trkpt>
      <trkpt lat="46.20792" lon="4.05923">
        <ele>260</ele>
        <time>2019-03-10T16:40:41Z</time>
      </trkpt>
      <trkpt lat="46.20824" lon="4.05849">
        <ele>260</ele>
        <time>2019-03-10T16:41:41Z</time>
      </trkpt>
      <trkpt lat="46.20881" lon="4.05697">
        <ele>260</ele>
        <time>2019-03-10T16:42:41Z</time>
      </trkpt>
      <trkpt lat="46.20895" lon="4.05646">
        <ele>261</ele>
        <time>2019-03-10T16:43:41Z</time>
      </trkpt>
      <trkpt lat="46.20923" lon="4.05581">
        <ele>263</ele>
        <time>2019-03-10T16:44:41Z</time>
      </trkpt>
      <trkpt lat="46.20898" lon="4.05557">
        <ele>267</ele>
        <time>2019-03-10T16:45:41Z</time>
      </trkpt>
      <trkpt lat="46.2092" lon="4.05474">
        <ele>268</ele>
        <time>2019-03-10T16:46:41Z</time>
      </trkpt>
    </trkseg>
  </trk>
</gpx>